Time;durP1;ratioP1;P1;durP2;ratioP2;P2;SDS_P1;SDS_P2;PMS_P1;PMS_P2;Temp;Humidity;BMP_temperature;BMP_pressure;BME280_temperature;BME280_humidity;BME280_pressure;Samples;Min_cycle;Max_cycle;Signal;HPM_P1;HPM_P2
2022/04/28 00:01:47;;;;;;;9.65;7.18;;;13.70;51.70;;;;;;5134551;27;20466;-53
2022/04/28 00:04:13;;;;;;;10.80;6.82;;;13.70;51.70;;;;;;5135250;27;20023;-48
2022/04/28 00:06:39;;;;;;;11.88;7.40;;;13.70;51.80;;;;;;5115829;27;20438;-50
2022/04/28 00:09:06;;;;;;;10.00;7.68;;;13.60;51.80;;;;;;5134996;27;20031;-54
2022/04/28 00:11:32;;;;;;;9.35;6.78;;;13.60;51.70;;;;;;5134516;27;20094;-55
2022/04/28 00:14:00;;;;;;;11.57;7.60;;;13.50;51.80;;;;;;5134881;27;20039;-49
2022/04/28 00:16:27;;;;;;;9.38;6.88;;;13.50;51.80;;;;;;5116483;27;20058;-52
2022/04/28 00:18:53;;;;;;;10.73;7.10;;;13.50;51.80;;;;;;5134690;27;20280;-49
2022/04/28 00:21:20;;;;;;;10.82;6.97;;;13.50;51.90;;;;;;5116529;27;20031;-53
2022/04/28 00:23:46;;;;;;;11.00;6.82;;;13.50;51.90;;;;;;5134185;27;20031;-49
2022/04/28 00:26:12;;;;;;;14.57;7.32;;;13.50;52.10;;;;;;5135035;27;20050;-47
2022/04/28 00:28:38;;;;;;;10.25;6.57;;;13.40;52.20;;;;;;5115446;27;20023;-49
2022/04/28 00:31:04;;;;;;;10.25;7.53;;;13.40;52.20;;;;;;5134855;27;20493;-47
2022/04/28 00:33:30;;;;;;;9.65;7.25;;;13.40;52.30;;;;;;5133246;27;20130;-57
2022/04/28 00:35:56;;;;;;;9.55;6.90;;;13.30;52.20;;;;;;5116223;27;20023;-50
2022/04/28 00:38:22;;;;;;;11.82;7.00;;;13.30;52.40;;;;;;5116508;27;20019;-53
2022/04/28 00:40:48;;;;;;;11.73;7.18;;;13.30;52.20;;;;;;5132716;27;20015;-58
2022/04/28 00:43:19;;;;;;;10.13;7.22;;;13.30;52.10;;;;;;5092459;28;20036;-53
2022/04/28 00:45:49;;;;;;;8.05;6.53;;;13.30;52.20;;;;;;5086274;28;20024;-53
2022/04/28 00:51:02;;;;;;;9.02;7.00;;;13.20;52.20;;;;;;5088447;28;20090;-50
2022/04/28 00:53:43;;;;;;;10.18;6.90;;;13.20;52.20;;;;;;5088002;28;20023;-55
2022/04/28 00:56:09;;;;;;;10.70;7.13;;;13.10;52.30;;;;;;5087110;28;20485;-56
2022/04/28 00:58:54;;;;;;;10.38;7.47;;;13.10;52.40;;;;;;5087702;28;20038;-56
2022/04/28 01:01:21;;;;;;;9.45;6.63;;;13.10;52.50;;;;;;5088955;28;20173;-56
2022/04/28 01:03:47;;;;;;;11.48;7.53;;;13.10;52.60;;;;;;5069234;28;20032;-55
2022/04/28 01:06:13;;;;;;;8.82;7.18;;;13.10;52.70;;;;;;5086657;28;20031;-53
2022/04/28 01:08:40;;;;;;;12.50;7.35;;;13.10;52.80;;;;;;5087243;28;20024;-48
2022/04/28 01:11:07;;;;;;;11.48;7.60;;;13.10;52.80;;;;;;5087641;28;20051;-55
2022/04/28 01:13:33;;;;;;;11.15;7.63;;;13.00;53.50;;;;;;5087530;28;20024;-56
2022/04/28 01:15:59;;;;;;;10.27;7.63;;;13.00;53.00;;;;;;5087496;28;20065;-54
2022/04/28 01:18:25;;;;;;;9.18;7.38;;;12.90;53.00;;;;;;5087855;28;20020;-53
2022/04/28 01:20:51;;;;;;;11.98;7.38;;;12.90;53.10;;;;;;5086870;28;20330;-49
2022/04/28 01:23:18;;;;;;;9.32;7.45;;;12.90;53.10;;;;;;5088513;28;20021;-54
2022/04/28 01:25:45;;;;;;;9.10;7.57;;;12.90;53.20;;;;;;5085685;28;20029;-52
2022/04/28 01:28:11;;;;;;;10.20;7.68;;;12.90;53.40;;;;;;5086034;28;20031;-47
2022/04/28 01:30:37;;;;;;;10.07;7.63;;;12.80;53.50;;;;;;5088412;28;20036;-50
2022/04/28 01:33:04;;;;;;;11.25;7.50;;;12.80;53.70;;;;;;5085888;28;20397;-52
2022/04/28 01:35:30;;;;;;;11.25;8.23;;;12.70;53.80;;;;;;5086999;28;20051;-59
2022/04/28 01:37:56;;;;;;;11.77;7.57;;;12.70;53.90;;;;;;5085343;28;20020;-55
2022/04/28 01:40:21;;;;;;;12.73;8.20;;;12.70;54.10;;;;;;5084962;28;20099;-60
2022/04/28 01:42:48;;;;;;;11.57;7.45;;;12.70;54.20;;;;;;5109060;27;20364;-54
2022/04/28 01:45:15;;;;;;;13.68;8.73;;;12.70;54.30;;;;;;5128364;27;20023;-57
2022/04/28 01:47:41;;;;;;;10.40;7.72;;;12.70;54.50;;;;;;5108927;27;20023;-53
2022/04/28 01:50:09;;;;;;;11.10;8.02;;;12.60;54.50;;;;;;5115086;27;20016;-53
2022/04/28 01:55:19;;;;;;;11.38;7.97;;;12.60;54.60;;;;;;5133832;27;20522;-53
2022/04/28 01:57:46;;;;;;;12.10;8.27;;;12.60;54.60;;;;;;5132644;27;20026;-51
2022/04/28 02:00:12;;;;;;;13.70;8.60;;;12.60;55.30;;;;;;5133459;27;20126;-50
2022/04/28 02:02:38;;;;;;;12.95;8.38;;;12.60;54.80;;;;;;5132824;27;20033;-54
2022/04/28 02:05:24;;;;;;;12.20;7.72;;;12.50;54.90;;;;;;5133408;27;20206;-54
2022/04/28 02:07:50;;;;;;;12.27;7.97;;;12.50;55.00;;;;;;5132476;27;20027;-50
2022/04/28 02:10:15;;;;;;;11.63;7.85;;;12.50;55.10;;;;;;5133103;27;20022;-50
2022/04/28 02:12:42;;;;;;;12.52;8.63;;;12.50;55.10;;;;;;5132340;27;20090;-55
2022/04/28 02:15:08;;;;;;;10.52;7.90;;;12.50;55.10;;;;;;5133132;27;20084;-51
2022/04/28 02:17:36;;;;;;;10.10;7.75;;;12.50;55.20;;;;;;5114363;27;20557;-58
2022/04/28 02:20:07;;;;;;;10.18;8.00;;;12.50;55.30;;;;;;5133036;27;20106;-52
2022/04/28 02:22:33;;;;;;;12.45;7.75;;;12.50;55.20;;;;;;5132657;27;20035;-60
2022/04/28 02:24:59;;;;;;;12.10;8.05;;;12.50;55.30;;;;;;5132834;27;20023;-49
2022/04/28 02:27:25;;;;;;;12.32;8.07;;;12.50;55.30;;;;;;5132584;27;20027;-54
2022/04/28 02:29:51;;;;;;;13.70;8.50;;;12.50;55.40;;;;;;5132452;27;20482;-55
2022/04/28 02:32:17;;;;;;;14.25;8.45;;;12.40;55.40;;;;;;5132793;27;20111;-53
2022/04/28 02:34:43;;;;;;;9.05;7.43;;;12.40;55.40;;;;;;5113762;28;20048;-56
2022/04/28 02:37:09;;;;;;;11.63;8.15;;;12.40;55.60;;;;;;5114241;27;20049;-52
2022/04/28 02:39:34;;;;;;;13.55;8.07;;;12.40;55.70;;;;;;5113961;27;20032;-60
2022/04/28 02:42:00;;;;;;;12.77;8.05;;;12.30;55.80;;;;;;5132112;27;20042;-52
2022/04/28 02:44:26;;;;;;;14.13;8.38;;;12.40;55.80;;;;;;5114254;28;20357;-54
2022/04/28 02:46:51;;;;;;;10.95;8.07;;;12.40;55.90;;;;;;5113585;28;20030;-54
2022/04/28 02:49:17;;;;;;;10.57;8.10;;;12.30;56.00;;;;;;5114074;28;20502;-52
2022/04/28 02:51:43;;;;;;;10.73;7.38;;;12.30;56.10;;;;;;5133732;27;20115;-53
2022/04/28 02:54:09;;;;;;;17.65;8.65;;;12.30;56.10;;;;;;5137093;27;20068;-55
2022/04/28 02:56:36;;;;;;;13.27;8.38;;;12.30;56.20;;;;;;5136452;27;20023;-61
2022/04/28 02:59:02;;;;;;;12.40;8.52;;;12.30;56.30;;;;;;5136494;27;20031;-54
2022/04/28 03:01:28;;;;;;;12.68;8.38;;;12.30;56.30;;;;;;5136965;27;20116;-55
2022/04/28 03:03:54;;;;;;;12.38;8.85;;;12.30;56.40;;;;;;5117533;27;20432;-53
2022/04/28 03:11:52;;;;;;;13.82;8.57;;;12.30;56.50;;;;;;5136179;27;20029;-53
2022/04/28 03:14:20;;;;;;;11.18;8.70;;;12.20;56.50;;;;;;5135631;27;20039;-55
2022/04/28 03:16:46;;;;;;;12.27;8.70;;;12.20;56.60;;;;;;5135629;27;20117;-49
2022/04/28 03:19:11;;;;;;;10.70;8.07;;;12.20;56.70;;;;;;5117998;27;20027;-51
2022/04/28 03:21:37;;;;;;;11.85;9.07;;;12.20;56.80;;;;;;5135756;27;20074;-60
2022/04/28 03:24:04;;;;;;;12.20;8.70;;;12.20;56.80;;;;;;5117574;27;20379;-51
2022/04/28 03:26:30;;;;;;;11.57;8.70;;;12.20;57.20;;;;;;5117863;27;20071;-53
2022/04/28 03:28:57;;;;;;;14.70;8.82;;;12.20;57.40;;;;;;5135549;27;20672;-55
2022/04/28 03:31:22;;;;;;;12.85;8.75;;;12.10;57.70;;;;;;5117805;27;20069;-52
2022/04/28 03:33:48;;;;;;;11.65;9.15;;;12.10;57.80;;;;;;5116896;27;20049;-54
2022/04/28 03:38:58;;;;;;;12.30;8.63;;;12.10;58.60;;;;;;5135510;27;20388;-50
2022/04/28 03:41:24;;;;;;;13.25;8.45;;;12.10;58.80;;;;;;5135846;27;20480;-55
2022/04/28 03:43:50;;;;;;;12.25;8.55;;;12.00;59.50;;;;;;5116588;27;20509;-54
2022/04/28 03:46:18;;;;;;;12.63;9.10;;;12.00;60.10;;;;;;5135735;27;20019;-55
2022/04/28 03:48:44;;;;;;;11.32;8.32;;;12.00;60.50;;;;;;5116909;27;20019;-50
2022/04/28 03:51:10;;;;;;;11.82;8.82;;;11.90;60.70;;;;;;5135343;27;20023;-55
2022/04/28 03:54:00;;;;;;;12.63;8.90;;;11.90;61.00;;;;;;5135477;27;20030;-59
2022/04/28 03:56:27;;;;;;;11.50;9.15;;;11.90;61.30;;;;;;5136136;27;20023;-56
2022/04/28 03:58:53;;;;;;;16.38;9.20;;;11.90;61.00;;;;;;5116655;27;20023;-53
2022/04/28 04:01:18;;;;;;;12.32;9.07;;;11.90;60.90;;;;;;5135689;27;20027;-56
2022/04/28 04:03:44;;;;;;;13.85;9.32;;;11.90;61.20;;;;;;5133994;27;20035;-57
2022/04/28 04:06:09;;;;;;;12.88;9.15;;;11.90;60.90;;;;;;5117066;27;20024;-54
2022/04/28 04:08:35;;;;;;;10.50;8.45;;;11.90;60.70;;;;;;5135699;27;20019;-60
2022/04/28 04:11:01;;;;;;;11.55;9.02;;;12.00;60.50;;;;;;5135002;27;20019;-53
2022/04/28 04:13:27;;;;;;;11.57;9.10;;;12.00;60.50;;;;;;5135326;27;20029;-55
2022/04/28 04:15:52;;;;;;;14.52;9.38;;;12.00;60.80;;;;;;5116457;27;20019;-51
2022/04/28 04:18:18;;;;;;;11.75;8.82;;;12.00;61.20;;;;;;5135330;27;20031;-54
2022/04/28 04:20:44;;;;;;;14.13;8.43;;;12.00;60.90;;;;;;5134614;27;20027;-53
2022/04/28 04:23:09;;;;;;;12.85;8.93;;;12.00;60.60;;;;;;5135316;27;20027;-54
2022/04/28 04:25:35;;;;;;;13.40;9.85;;;12.10;60.60;;;;;;5116563;27;20506;-60
2022/04/28 04:28:19;;;;;;;14.05;9.02;;;12.10;60.90;;;;;;5134112;27;20019;-54
2022/04/28 04:33:29;;;;;;;;;;;12.10;60.00;;;;;;5135453;27;20030;-51
2022/04/28 04:35:55;;;;;;;16.17;7.95;;;12.10;59.40;;;;;;5134328;27;20454;-55
2022/04/28 04:38:20;;;;;;;14.60;8.77;;;12.10;59.30;;;;;;5134806;27;20414;-52
2022/04/28 04:40:46;;;;;;;15.00;8.70;;;12.20;59.10;;;;;;5115754;27;20016;-51
2022/04/28 04:43:13;;;;;;;12.50;8.68;;;12.20;58.80;;;;;;5134646;27;20040;-53
2022/04/28 04:45:42;;;;;;;13.27;8.23;;;12.30;58.70;;;;;;5134163;27;20016;-62
2022/04/28 04:48:13;;;;;;;17.15;8.88;;;12.40;58.40;;;;;;5134519;27;20019;-55
2022/04/28 04:50:40;;;;;;;14.38;8.35;;;12.40;58.10;;;;;;5134166;27;20019;-59
2022/04/28 04:53:06;;;;;;;13.98;8.20;;;12.40;58.00;;;;;;5133525;27;20019;-52
2022/04/28 04:55:38;;;;;;;10.50;8.15;;;12.40;57.80;;;;;;5116003;27;20028;-54
2022/04/28 04:58:05;;;;;;;14.38;8.18;;;12.50;57.40;;;;;;5134434;27;20031;-53
2022/04/28 05:00:31;;;;;;;14.73;8.05;;;12.50;57.50;;;;;;5134398;27;20440;-50
2022/04/28 05:02:57;;;;;;;10.55;8.40;;;12.60;57.30;;;;;;5133626;27;20110;-55
2022/04/28 05:05:23;;;;;;;13.73;8.65;;;12.70;57.10;;;;;;5134151;27;20019;-54
2022/04/28 05:07:48;;;;;;;12.48;7.75;;;12.80;57.00;;;;;;5133359;27;20027;-52
2022/04/28 05:10:14;;;;;;;13.02;7.90;;;12.90;56.90;;;;;;5115617;27;20023;-51
2022/04/28 05:12:40;;;;;;;10.85;8.10;;;13.00;56.70;;;;;;5114326;27;20123;-59
2022/04/28 05:15:06;;;;;;;10.82;8.05;;;13.10;56.50;;;;;;5133527;27;20019;-53
2022/04/28 05:17:32;;;;;;;12.60;8.25;;;13.10;56.40;;;;;;5115613;27;20054;-54
2022/04/28 05:19:58;;;;;;;16.42;8.82;;;13.20;56.30;;;;;;5133007;27;20609;-52
2022/04/28 05:22:27;;;;;;;10.82;9.23;;;13.20;56.10;;;;;;5133974;27;20068;-53
2022/04/28 05:27:37;;;;;;;15.63;8.88;;;13.40;55.80;;;;;;5133758;27;20062;-60
2022/04/28 05:30:03;;;;;;;11.93;8.20;;;13.50;55.50;;;;;;5132963;27;20019;-55
2022/04/28 05:32:47;;;;;;;13.70;8.48;;;13.50;55.50;;;;;;5133384;27;20384;-57
2022/04/28 05:35:13;;;;;;;12.98;8.10;;;13.50;55.00;;;;;;5114928;27;20023;-57
2022/04/28 05:37:39;;;;;;;14.95;8.10;;;13.60;55.00;;;;;;5114847;27;20035;-62
2022/04/28 05:40:06;;;;;;;16.33;8.40;;;13.70;55.00;;;;;;5133281;27;20023;-55
2022/04/28 05:48:01;;;;;;;;;;;14.30;53.50;;;;;;5132602;27;20136;-58
2022/04/28 05:50:27;;;;;;;15.07;7.95;;;14.50;52.60;;;;;;5114139;27;19907;-55
2022/04/28 05:52:53;;;;;;;12.80;7.57;;;14.70;52.80;;;;;;5131608;27;20076;-59
2022/04/28 05:55:19;;;;;;;11.95;7.82;;;15.00;51.90;;;;;;5132776;27;20015;-55
2022/04/28 05:57:44;;;;;;;14.90;8.10;;;15.20;51.40;;;;;;5131845;27;20059;-56
2022/04/28 06:00:10;;;;;;;13.75;7.80;;;15.40;50.60;;;;;;5114347;27;20031;-56
2022/04/28 06:02:37;;;;;;;12.50;7.93;;;15.50;50.20;;;;;;5131931;27;20102;-55
2022/04/28 06:05:03;;;;;;;13.80;8.77;;;15.50;50.10;;;;;;5131203;27;20027;-59
2022/04/28 06:07:29;;;;;;;15.90;8.00;;;15.40;50.00;;;;;;5132431;27;20019;-53
2022/04/28 06:09:55;;;;;;;15.85;8.13;;;15.40;50.00;;;;;;5113512;27;20051;-58
2022/04/28 06:12:23;;;;;;;13.50;8.73;;;15.40;50.20;;;;;;5131452;27;20046;-59
2022/04/28 06:14:49;;;;;;;10.50;8.60;;;15.40;50.30;;;;;;5131743;27;20023;-59
2022/04/28 06:17:14;;;;;;;11.52;8.27;;;15.50;50.20;;;;;;5130910;27;20106;-61
2022/04/28 06:19:40;;;;;;;10.95;8.15;;;15.70;49.90;;;;;;5113146;27;20119;-61
2022/04/28 06:22:06;;;;;;;12.63;9.25;;;15.90;48.80;;;;;;5131309;27;20038;-59
2022/04/28 06:24:31;;;;;;;10.45;7.80;;;16.20;48.50;;;;;;5131219;27;20038;-58
2022/04/28 06:26:57;;;;;;;13.80;8.02;;;16.50;47.40;;;;;;5130278;27;20113;-57
2022/04/28 06:29:23;;;;;;;10.27;8.10;;;16.70;46.70;;;;;;5110007;27;20015;-56
2022/04/28 06:31:49;;;;;;;11.25;8.30;;;16.90;46.20;;;;;;5129861;27;20026;-57
2022/04/28 06:34:16;;;;;;;10.00;7.70;;;17.20;45.70;;;;;;5130418;27;20023;-59
2022/04/28 06:36:42;;;;;;;10.93;7.63;;;17.30;45.30;;;;;;5130340;27;20578;-60
2022/04/28 06:39:08;;;;;;;14.25;8.07;;;17.50;44.70;;;;;;5132662;27;20031;-55
2022/04/28 06:41:34;;;;;;;15.50;7.55;;;17.80;44.30;;;;;;5132545;27;20103;-61
2022/04/28 06:44:00;;;;;;;12.55;8.05;;;18.10;44.00;;;;;;5112852;27;20444;-57
2022/04/28 06:53:10;;;;;;;12.63;6.97;;;18.80;41.70;;;;;;5028952;28;20573;-58
2022/04/28 06:55:36;;;;;;;10.50;7.80;;;18.80;41.90;;;;;;5011564;28;20026;-59
2022/04/28 06:58:01;;;;;;;14.77;8.10;;;18.70;41.90;;;;;;5010728;28;20060;-59
2022/04/28 07:00:27;;;;;;;11.07;7.32;;;18.50;42.20;;;;;;5028581;28;20479;-56
2022/04/28 07:02:53;;;;;;;10.98;7.28;;;18.40;42.40;;;;;;5028080;28;20036;-56
2022/04/28 07:05:18;;;;;;;10.73;7.30;;;18.20;42.50;;;;;;5012184;28;20120;-57
2022/04/28 07:07:45;;;;;;;11.65;8.10;;;18.20;42.80;;;;;;5028269;28;20474;-57
2022/04/28 07:10:11;;;;;;;11.43;7.57;;;19.30;43.10;;;;;;5011598;28;20041;-54
2022/04/28 07:12:39;;;;;;;13.85;7.18;;;22.50;39.40;;;;;;5029148;28;20526;-54
2022/04/28 07:15:05;;;;;;;10.65;7.38;;;25.70;35.80;;;;;;5011029;28;20118;-57
2022/04/28 07:17:31;;;;;;;11.43;7.30;;;26.90;31.30;;;;;;5012114;28;20026;-56
2022/04/28 07:19:56;;;;;;;10.77;7.78;;;25.90;30.60;;;;;;5083355;28;20035;-54
2022/04/28 07:22:22;;;;;;;9.60;7.00;;;26.50;32.00;;;;;;5131926;27;20102;-56
2022/04/28 07:24:48;;;;;;;11.23;8.15;;;29.20;30.20;;;;;;5112664;28;20023;-60
2022/04/28 07:27:13;;;;;;;9.02;7.05;;;31.30;28.20;;;;;;5131910;27;20027;-59
2022/04/28 07:29:39;;;;;;;16.60;7.32;;;32.80;26.70;;;;;;5113469;28;20024;-59
2022/04/28 07:32:07;;;;;;;7.80;6.30;;;34.40;26.10;;;;;;5112556;28;20095;-57
2022/04/28 07:34:33;;;;;;;9.48;6.53;;;35.60;25.50;;;;;;5112756;28;20430;-61
2022/04/28 07:36:58;;;;;;;11.48;7.00;;;37.00;24.90;;;;;;5112559;27;20034;-58
2022/04/28 07:39:24;;;;;;;8.30;6.70;;;38.10;23.60;;;;;;5116065;27;20050;-60
2022/04/28 07:41:50;;;;;;;9.63;6.30;;;39.10;23.00;;;;;;5134124;27;20063;-59
2022/04/28 07:44:16;;;;;;;9.13;6.38;;;39.90;22.70;;;;;;5134575;27;20460;-58
2022/04/28 07:46:41;;;;;;;10.90;6.65;;;40.80;22.30;;;;;;5116752;27;20495;-60
2022/04/28 07:49:07;;;;;;;9.48;6.80;;;41.10;21.50;;;;;;5134591;27;20023;-59
2022/04/28 07:51:34;;;;;;;17.88;8.40;;;41.40;21.20;;;;;;5134674;27;20376;-59
2022/04/28 07:54:03;;;;;;;12.65;7.03;;;42.00;21.20;;;;;;5116232;27;20134;-60
2022/04/28 07:56:30;;;;;;;22.30;7.30;;;42.60;20.70;;;;;;5116544;27;20055;-58
2022/04/28 07:58:56;;;;;;;22.30;8.90;;;43.00;20.40;;;;;;5134526;27;20030;-59
2022/04/28 08:01:21;;;;;;;16.90;9.93;;;43.20;20.30;;;;;;5116027;27;20015;-60
2022/04/28 08:03:48;;;;;;;16.13;8.48;;;43.50;20.00;;;;;;5114693;27;20110;-62
2022/04/28 08:06:14;;;;;;;10.95;7.55;;;43.40;19.80;;;;;;5134447;27;20061;-59
2022/04/28 08:08:41;;;;;;;15.80;8.20;;;43.60;20.00;;;;;;5116147;27;20096;-58
2022/04/28 08:11:07;;;;;;;11.80;8.70;;;44.30;19.90;;;;;;5115952;27;20234;-59
2022/04/28 08:13:34;;;;;;;13.30;7.43;;;44.50;19.80;;;;;;5134992;27;20030;-60
2022/04/28 08:16:01;;;;;;;12.40;8.30;;;44.30;19.80;;;;;;5134666;27;20020;-59
2022/04/28 08:18:29;;;;;;;8.52;7.45;;;44.90;19.70;;;;;;5134239;27;20019;-60
2022/04/28 08:20:55;;;;;;;15.93;9.38;;;44.90;19.70;;;;;;5114998;27;20381;-59
2022/04/28 08:23:21;;;;;;;9.32;7.53;;;45.30;19.60;;;;;;5115839;27;20103;-59
2022/04/28 08:25:47;;;;;;;14.10;8.02;;;45.80;19.60;;;;;;5115783;27;20026;-63
2022/04/28 08:28:13;;;;;;;12.20;7.28;;;46.20;19.60;;;;;;5134265;27;20050;-59
2022/04/28 08:30:39;;;;;;;8.20;7.15;;;45.80;19.50;;;;;;5134427;27;20074;-59
2022/04/28 08:33:05;;;;;;;19.55;7.45;;;45.60;19.50;;;;;;5133203;27;20035;-58
2022/04/28 08:35:31;;;;;;;18.92;8.30;;;45.50;19.70;;;;;;5134180;27;20034;-59
2022/04/28 08:37:57;;;;;;;12.10;7.68;;;45.30;19.50;;;;;;5133811;27;20019;-59
2022/04/28 08:40:24;;;;;;;11.02;8.25;;;44.50;19.40;;;;;;5115327;27;20023;-59
2022/04/28 08:42:50;;;;;;;11.40;7.25;;;43.80;19.70;;;;;;5133484;27;20050;-61
2022/04/28 08:45:26;;;;;;;13.63;7.72;;;43.20;19.80;;;;;;5115692;27;20019;-57
2022/04/28 08:47:53;;;;;;;13.95;7.43;;;42.40;19.80;;;;;;5133747;27;20489;-62
2022/04/28 08:50:22;;;;;;;8.60;7.70;;;42.00;20.00;;;;;;5115404;27;20026;-59
2022/04/28 08:52:49;;;;;;;14.50;8.40;;;41.70;20.20;;;;;;5116174;27;20027;-57
2022/04/28 08:55:16;;;;;;;13.05;8.18;;;41.40;20.20;;;;;;5134098;27;20034;-61
2022/04/28 08:57:42;;;;;;;12.73;7.70;;;41.20;20.30;;;;;;5114907;27;20031;-61
2022/04/28 09:00:09;;;;;;;12.40;7.90;;;40.80;20.20;;;;;;5114020;27;20019;-55
2022/04/28 09:02:35;;;;;;;11.10;7.30;;;38.10;20.80;;;;;;5133252;27;20028;-59
2022/04/28 09:05:07;;;;;;;12.13;7.43;;;35.50;22.00;;;;;;5132820;27;20100;-60
2022/04/28 09:07:38;;;;;;;12.15;8.13;;;33.40;23.00;;;;;;5132899;27;20047;-57
2022/04/28 09:10:26;;;;;;;17.77;7.90;;;31.70;23.80;;;;;;5132519;27;20138;-55
2022/04/28 09:14:09;;;;;;;24.38;9.13;;;30.20;25.00;;;;;;5114402;27;20041;-62
2022/04/28 09:15:59;;;;;;;14.38;7.90;;;29.00;25.30;;;;;;5132036;27;20122;-60
2022/04/28 09:18:25;;;;;;;10.60;7.18;;;28.00;25.90;;;;;;5133837;27;20027;-58
2022/04/28 09:20:51;;;;;;;15.55;8.27;;;27.50;26.20;;;;;;5133884;27;20030;-60
2022/04/28 09:23:18;;;;;;;63.22;10.50;;;27.00;26.60;;;;;;5132923;27;20027;-59
2022/04/28 09:25:45;;;;;;;14.05;6.88;;;26.40;26.80;;;;;;5114607;27;20079;-59
2022/04/28 09:28:12;;;;;;;20.13;9.00;;;25.90;26.90;;;;;;5132447;27;20107;-59
2022/04/28 09:30:46;;;;;;;14.25;7.60;;;25.40;27.30;;;;;;5115137;27;20079;-58
2022/04/28 09:33:13;;;;;;;10.70;7.03;;;25.30;27.60;;;;;;5114109;27;20265;-58
2022/04/28 09:35:49;;;;;;;10.98;6.50;;;25.00;27.50;;;;;;5133073;27;20015;-59
2022/04/28 09:38:16;;;;;;;34.83;8.73;;;24.80;27.30;;;;;;5131973;27;20642;-58
2022/04/28 09:43:33;;;;;;;33.85;7.40;;;24.30;27.40;;;;;;5133216;27;20065;-60
2022/04/28 09:46:02;;;;;;;12.18;6.50;;;24.10;27.50;;;;;;5131915;27;20027;-59
2022/04/28 09:48:36;;;;;;;20.58;7.47;;;23.90;27.70;;;;;;5132752;27;20079;-58
2022/04/28 09:51:12;;;;;;;14.75;7.10;;;23.90;28.30;;;;;;5114305;27;20030;-63
2022/04/28 09:53:39;;;;;;;11.93;4.95;;;23.80;27.90;;;;;;5132535;27;20019;-55
2022/04/28 09:56:06;;;;;;;24.95;7.43;;;23.70;27.50;;;;;;5113570;27;20030;-58
2022/04/28 09:58:32;;;;;;;12.48;5.10;;;23.50;27.40;;;;;;5132323;27;20050;-58
2022/04/28 10:01:03;;;;;;;14.18;5.32;;;23.50;27.80;;;;;;5112774;27;20383;-62
2022/04/28 10:03:33;;;;;;;15.00;5.43;;;23.50;27.10;;;;;;5131989;27;20158;-59
2022/04/28 10:06:00;;;;;;;27.75;7.28;;;23.50;27.00;;;;;;5130652;27;20087;-62
2022/04/28 10:08:26;;;;;;;18.48;6.07;;;23.50;27.20;;;;;;5132053;27;20030;-58
2022/04/28 10:10:57;;;;;;;13.13;5.97;;;23.50;27.40;;;;;;5113604;27;20416;-59
2022/04/28 10:13:24;;;;;;;14.85;6.72;;;23.50;27.00;;;;;;5132293;27;20031;-59
2022/04/28 10:15:55;;;;;;;11.82;6.68;;;23.50;27.20;;;;;;5113716;27;20075;-58
2022/04/28 10:18:26;;;;;;;15.80;7.18;;;23.40;26.90;;;;;;5112875;27;20023;-57
2022/04/28 10:20:58;;;;;;;14.45;7.22;;;23.60;26.90;;;;;;5131775;27;20023;-56
2022/04/28 10:35:02;;;;;;;8.05;5.35;;;23.30;27.00;;;;;;5131929;27;20034;-65
2022/04/28 10:37:59;;;;;;;10.68;5.88;;;23.50;26.90;;;;;;5112709;27;20057;-68
2022/04/28 10:40:24;;;;;;;17.88;10.13;;;23.60;26.80;;;;;;5131716;27;20448;-65
2022/04/28 10:42:50;;;;;;;11.35;7.18;;;23.40;28.90;;;;;;5131744;27;20054;-69
2022/04/28 10:45:22;;;;;;;8.20;7.00;;;23.30;30.00;;;;;;5130967;27;20023;-64
2022/04/28 10:47:48;;;;;;;10.98;7.00;;;23.20;30.50;;;;;;5131396;27;20029;-71
2022/04/28 10:50:22;;;;;;;12.70;7.88;;;23.00;30.70;;;;;;5112108;28;20126;-65
2022/04/28 10:52:55;;;;;;;18.60;6.95;;;22.90;30.60;;;;;;5130909;28;20098;-66
2022/04/28 10:55:23;;;;;;;13.20;8.07;;;22.60;30.70;;;;;;5112401;28;20015;-65
2022/04/28 10:57:49;;;;;;;16.13;7.40;;;22.50;31.00;;;;;;5112550;28;20483;-65
2022/04/28 11:00:34;;;;;;;13.68;7.22;;;22.40;31.20;;;;;;5112527;28;20122;-67
2022/04/28 11:03:00;;;;;;;10.75;6.70;;;22.20;31.50;;;;;;5111706;28;20076;-76
2022/04/28 11:05:32;;;;;;;10.93;6.43;;;22.00;31.50;;;;;;5129997;27;20019;-66
2022/04/28 11:08:00;;;;;;;8.93;5.97;;;22.00;31.50;;;;;;5111170;28;20031;-69
2022/04/28 11:10:27;;;;;;;12.55;7.07;;;22.00;31.90;;;;;;5130428;27;20023;-64
2022/04/28 11:12:55;;;;;;;9.77;7.43;;;21.90;31.30;;;;;;5114574;27;20208;-67
2022/04/28 11:15:21;;;;;;;10.82;7.43;;;21.90;31.30;;;;;;5133700;27;20022;-69
2022/04/28 11:17:47;;;;;;;10.95;6.82;;;21.80;31.30;;;;;;5134558;27;20023;-64
2022/04/28 11:20:36;;;;;;;11.57;6.20;;;21.80;31.50;;;;;;5129907;27;20020;-71
2022/04/28 11:23:02;;;;;;;12.65;7.32;;;21.90;31.50;;;;;;5133098;27;20027;-71
2022/04/28 11:25:27;;;;;;;10.45;6.70;;;22.10;31.00;;;;;;5132608;27;20030;-68
2022/04/28 11:27:56;;;;;;;12.13;6.05;;;22.20;30.80;;;;;;5132572;27;20353;-64
2022/04/28 11:30:25;;;;;;;7.30;5.65;;;22.30;30.40;;;;;;5132303;27;20031;-67
2022/04/28 11:32:58;;;;;;;13.27;7.82;;;22.20;30.10;;;;;;5116303;27;20199;-65
2022/04/28 11:35:36;;;;;;;14.43;5.55;;;22.20;30.60;;;;;;5133173;27;20033;-68
2022/04/28 11:38:03;;;;;;;9.98;5.75;;;22.20;30.50;;;;;;5133189;27;20057;-68
2022/04/28 11:40:33;;;;;;;10.43;6.00;;;22.30;30.30;;;;;;5114451;27;20055;-64
2022/04/28 11:43:01;;;;;;;7.50;4.68;;;22.60;30.20;;;;;;5133559;27;20099;-64
2022/04/28 11:45:31;;;;;;;10.77;5.65;;;22.80;29.30;;;;;;5116174;27;20058;-64
2022/04/28 11:48:00;;;;;;;16.58;8.35;;;23.10;28.80;;;;;;5115075;27;20103;-65
2022/04/28 11:50:32;;;;;;;8.48;4.63;;;23.40;28.60;;;;;;5113797;27;20047;-65
2022/04/28 11:53:06;;;;;;;6.75;4.40;;;23.50;27.80;;;;;;5115766;27;20023;-65
2022/04/28 11:55:38;;;;;;;20.73;11.00;;;23.80;27.80;;;;;;5114917;27;20404;-65
2022/04/28 11:58:06;;;;;;;16.75;7.22;;;24.10;26.90;;;;;;5099128;27;20035;-72
2022/04/28 12:00:39;;;;;;;21.83;5.95;;;24.20;26.20;;;;;;5114983;27;20023;-66
2022/04/28 12:03:05;;;;;;;12.13;6.60;;;24.20;26.30;;;;;;5133319;27;20026;-74
2022/04/28 12:05:32;;;;;;;7.75;4.38;;;24.20;26.40;;;;;;5133121;27;20468;-64
2022/04/28 12:07:58;;;;;;;11.10;3.85;;;24.30;26.60;;;;;;5133487;27;20037;-67
2022/04/28 12:16:06;;;;;;;16.17;7.68;;;24.40;26.20;;;;;;5132703;27;20115;-67
2022/04/28 12:21:22;;;;;;;11.90;5.60;;;24.60;26.40;;;;;;5132491;27;20034;-69
2022/04/28 12:23:51;;;;;;;24.80;19.73;;;24.60;26.50;;;;;;5113904;27;20041;-73
2022/04/28 12:26:29;;;;;;;13.68;7.07;;;24.50;26.40;;;;;;5133120;27;20060;-64
2022/04/28 12:28:55;;;;;;;17.60;14.82;;;24.20;26.70;;;;;;5133300;27;20023;-66
2022/04/28 12:31:29;;;;;;;12.35;7.20;;;24.10;26.60;;;;;;5132825;27;20092;-63
2022/04/28 12:33:55;;;;;;;12.70;7.20;;;24.00;26.80;;;;;;5114397;27;20031;-64
2022/04/28 12:36:21;;;;;;;23.40;14.93;;;24.10;27.50;;;;;;5132411;27;20023;-70
2022/04/28 12:38:56;;;;;;;15.40;8.93;;;23.80;27.20;;;;;;5133297;27;20023;-66
2022/04/28 12:41:24;;;;;;;10.05;6.85;;;23.50;27.20;;;;;;5132384;27;20015;-63
2022/04/28 12:44:00;;;;;;;18.48;11.05;;;23.30;26.70;;;;;;5132384;27;20051;-64
2022/04/28 12:46:32;;;;;;;16.10;6.72;;;23.40;26.70;;;;;;5131567;27;20019;-65
2022/04/28 12:49:03;;;;;;;17.83;8.00;;;23.50;26.90;;;;;;5132730;27;20076;-67
2022/04/28 12:51:49;;;;;;;12.10;5.90;;;23.40;27.00;;;;;;5114285;27;20019;-65
2022/04/28 12:54:22;;;;;;;14.93;5.35;;;23.30;27.10;;;;;;5113186;27;20035;-66
2022/04/28 12:57:00;;;;;;;10.57;5.63;;;23.10;27.20;;;;;;5131980;27;20403;-73
2022/04/28 12:59:30;;;;;;;12.20;6.25;;;23.00;27.50;;;;;;5113585;27;20326;-65
2022/04/28 13:01:56;;;;;;;16.00;7.45;;;23.00;27.60;;;;;;5113890;27;20027;-66
2022/04/28 13:04:24;;;;;;;9.32;4.85;;;22.90;27.80;;;;;;5114198;27;20019;-64
2022/04/28 13:06:50;;;;;;;12.30;5.97;;;22.90;27.90;;;;;;5113663;27;20027;-63
2022/04/28 13:09:18;;;;;;;13.52;9.02;;;22.80;27.70;;;;;;5112830;27;20023;-64
2022/04/28 13:11:45;;;;;;;11.30;5.82;;;22.70;27.90;;;;;;5131519;27;20027;-65
2022/04/28 13:14:14;;;;;;;10.45;5.57;;;22.80;27.90;;;;;;5113647;27;20081;-75
2022/04/28 13:16:40;;;;;;;11.75;5.10;;;22.70;27.90;;;;;;5113807;27;20041;-65
2022/04/28 13:19:08;;;;;;;15.75;5.25;;;22.70;28.00;;;;;;5131483;27;20047;-73
2022/04/28 13:21:35;;;;;;;11.10;4.22;;;22.80;27.80;;;;;;5113027;27;20068;-65
2022/04/28 13:24:00;;;;;;;12.75;4.93;;;23.00;27.50;;;;;;5130019;27;20095;-73
2022/04/28 13:26:28;;;;;;;10.80;5.57;;;23.00;27.40;;;;;;5130983;27;20541;-71
2022/04/28 13:28:55;;;;;;;12.43;4.72;;;23.00;27.70;;;;;;5113412;27;20023;-64
2022/04/28 13:31:21;;;;;;;8.85;5.10;;;22.90;28.10;;;;;;5131262;27;20020;-64
2022/04/28 13:33:48;;;;;;;9.27;4.43;;;23.00;27.80;;;;;;5131375;27;20020;-63
2022/04/28 13:36:15;;;;;;;11.15;4.68;;;23.10;27.80;;;;;;5129509;27;20023;-74